sensor_id;sensor_type;location;lat;lon;timestamp;temperature;humidity
63289;DHT22;49412;48.162;-1.978;2022-08-19T00:01:07;20.30;99.90
63289;DHT22;49412;48.162;-1.978;2022-08-19T00:03:33;20.50;99.90
63289;DHT22;49412;48.162;-1.978;2022-08-19T00:05:58;20.80;99.90
63289;DHT22;49412;48.162;-1.978;2022-08-19T00:08:24;20.80;99.90
63289;DHT22;49412;48.162;-1.978;2022-08-19T00:10:50;20.90;99.90
63289;DHT22;49412;48.162;-1.978;2022-08-19T00:13:16;21.00;99.90
63289;DHT22;49412;48.162;-1.978;2022-08-19T00:15:41;21.10;99.90
63289;DHT22;49412;48.162;-1.978;2022-08-19T00:18:10;21.20;99.90
63289;DHT22;49412;48.162;-1.978;2022-08-19T00:20:35;21.10;99.90
63289;DHT22;49412;48.162;-1.978;2022-08-19T00:23:03;21.00;99.90
63289;DHT22;49412;48.162;-1.978;2022-08-19T00:25:29;21.00;99.90
63289;DHT22;49412;48.162;-1.978;2022-08-19T00:27:54;21.10;99.90
63289;DHT22;49412;48.162;-1.978;2022-08-19T00:30:20;21.10;99.90
63289;DHT22;49412;48.162;-1.978;2022-08-19T00:32:46;21.10;99.90
63289;DHT22;49412;48.162;-1.978;2022-08-19T00:35:12;21.20;99.90
63289;DHT22;49412;48.162;-1.978;2022-08-19T00:37:38;21.30;99.90
63289;DHT22;49412;48.162;-1.978;2022-08-19T00:40:04;21.40;99.90
63289;DHT22;49412;48.162;-1.978;2022-08-19T00:42:30;21.20;99.90
63289;DHT22;49412;48.162;-1.978;2022-08-19T00:44:56;21.00;99.90
63289;DHT22;49412;48.162;-1.978;2022-08-19T00:47:21;21.00;99.90
63289;DHT22;49412;48.162;-1.978;2022-08-19T00:49:48;21.10;99.90
63289;DHT22;49412;48.162;-1.978;2022-08-19T00:52:18;21.20;99.90
63289;DHT22;49412;48.162;-1.978;2022-08-19T00:54:45;21.20;99.90
63289;DHT22;49412;48.162;-1.978;2022-08-19T00:57:13;21.20;99.90
63289;DHT22;49412;48.162;-1.978;2022-08-19T00:59:40;21.20;99.90
63289;DHT22;49412;48.162;-1.978;2022-08-19T01:02:07;21.20;99.90
63289;DHT22;49412;48.162;-1.978;2022-08-19T01:04:33;21.20;99.90
63289;DHT22;49412;48.162;-1.978;2022-08-19T01:06:58;21.20;99.90
63289;DHT22;49412;48.162;-1.978;2022-08-19T01:09:24;21.20;99.90
63289;DHT22;49412;48.162;-1.978;2022-08-19T01:11:50;21.20;99.90
63289;DHT22;49412;48.162;-1.978;2022-08-19T01:14:16;21.00;99.90
63289;DHT22;49412;48.162;-1.978;2022-08-19T01:16:42;21.00;99.90
63289;DHT22;49412;48.162;-1.978;2022-08-19T01:19:10;21.10;99.90
63289;DHT22;49412;48.162;-1.978;2022-08-19T01:21:40;20.80;99.90
63289;DHT22;49412;48.162;-1.978;2022-08-19T01:24:07;20.70;99.90
63289;DHT22;49412;48.162;-1.978;2022-08-19T01:26:37;20.60;99.90
63289;DHT22;49412;48.162;-1.978;2022-08-19T01:29:03;20.70;99.90
63289;DHT22;49412;48.162;-1.978;2022-08-19T01:31:29;20.70;99.90
63289;DHT22;49412;48.162;-1.978;2022-08-19T01:33:57;20.60;99.90
63289;DHT22;49412;48.162;-1.978;2022-08-19T01:36:25;20.40;99.90
63289;DHT22;49412;48.162;-1.978;2022-08-19T01:38:52;20.50;99.90
63289;DHT22;49412;48.162;-1.978;2022-08-19T01:41:17;20.60;99.90
63289;DHT22;49412;48.162;-1.978;2022-08-19T01:43:43;20.70;99.90
63289;DHT22;49412;48.162;-1.978;2022-08-19T01:46:09;20.80;99.90
63289;DHT22;49412;48.162;-1.978;2022-08-19T01:48:36;21.00;99.90
63289;DHT22;49412;48.162;-1.978;2022-08-19T01:51:02;20.90;99.90
63289;DHT22;49412;48.162;-1.978;2022-08-19T01:53:28;20.70;99.90
63289;DHT22;49412;48.162;-1.978;2022-08-19T01:55:54;20.80;99.90
63289;DHT22;49412;48.162;-1.978;2022-08-19T01:58:21;21.00;99.90
63289;DHT22;49412;48.162;-1.978;2022-08-19T02:00:48;20.90;99.90
63289;DHT22;49412;48.162;-1.978;2022-08-19T02:03:14;21.00;99.90
63289;DHT22;49412;48.162;-1.978;2022-08-19T02:05:40;21.10;99.90
63289;DHT22;49412;48.162;-1.978;2022-08-19T02:08:06;20.90;99.90
63289;DHT22;49412;48.162;-1.978;2022-08-19T02:10:31;20.80;99.90
63289;DHT22;49412;48.162;-1.978;2022-08-19T02:12:57;20.80;99.90
63289;DHT22;49412;48.162;-1.978;2022-08-19T02:15:23;20.90;99.90
63289;DHT22;49412;48.162;-1.978;2022-08-19T02:17:50;20.80;99.90
63289;DHT22;49412;48.162;-1.978;2022-08-19T02:20:16;20.70;99.90
63289;DHT22;49412;48.162;-1.978;2022-08-19T02:22:42;20.70;99.90
63289;DHT22;49412;48.162;-1.978;2022-08-19T02:25:11;20.50;99.90
63289;DHT22;49412;48.162;-1.978;2022-08-19T02:27:37;20.50;99.90
63289;DHT22;49412;48.162;-1.978;2022-08-19T02:30:04;20.50;99.90
63289;DHT22;49412;48.162;-1.978;2022-08-19T02:32:30;20.40;99.90
63289;DHT22;49412;48.162;-1.978;2022-08-19T02:34:56;20.50;99.90
63289;DHT22;49412;48.162;-1.978;2022-08-19T02:37:21;20.30;99.90
63289;DHT22;49412;48.162;-1.978;2022-08-19T02:40:05;20.30;99.90
63289;DHT22;49412;48.162;-1.978;2022-08-19T02:42:32;20.20;99.90
63289;DHT22;49412;48.162;-1.978;2022-08-19T02:44:58;20.30;99.90
63289;DHT22;49412;48.162;-1.978;2022-08-19T02:47:23;20.20;99.90
63289;DHT22;49412;48.162;-1.978;2022-08-19T02:49:49;19.90;99.90
63289;DHT22;49412;48.162;-1.978;2022-08-19T02:52:17;19.80;99.90
63289;DHT22;49412;48.162;-1.978;2022-08-19T02:54:43;19.80;99.90
63289;DHT22;49412;48.162;-1.978;2022-08-19T02:57:09;19.90;99.90
63289;DHT22;49412;48.162;-1.978;2022-08-19T02:59:35;19.90;99.90
63289;DHT22;49412;48.162;-1.978;2022-08-19T03:02:00;20.20;99.90
63289;DHT22;49412;48.162;-1.978;2022-08-19T03:04:26;20.30;99.90
63289;DHT22;49412;48.162;-1.978;2022-08-19T03:06:51;20.30;99.90
63289;DHT22;49412;48.162;-1.978;2022-08-19T03:09:18;20.30;99.90
63289;DHT22;49412;48.162;-1.978;2022-08-19T03:11:44;20.40;99.90
63289;DHT22;49412;48.162;-1.978;2022-08-19T03:14:09;20.40;99.90
63289;DHT22;49412;48.162;-1.978;2022-08-19T03:16:43;20.40;99.90
63289;DHT22;49412;48.162;-1.978;2022-08-19T03:19:09;20.50;99.90
63289;DHT22;49412;48.162;-1.978;2022-08-19T03:21:34;20.30;99.90
63289;DHT22;49412;48.162;-1.978;2022-08-19T03:24:01;20.30;99.90
63289;DHT22;49412;48.162;-1.978;2022-08-19T03:26:27;20.40;99.90
63289;DHT22;49412;48.162;-1.978;2022-08-19T03:28:53;20.50;99.90
63289;DHT22;49412;48.162;-1.978;2022-08-19T03:31:20;20.50;99.90
63289;DHT22;49412;48.162;-1.978;2022-08-19T03:33:49;20.50;99.90
63289;DHT22;49412;48.162;-1.978;2022-08-19T03:36:17;20.50;99.90
63289;DHT22;49412;48.162;-1.978;2022-08-19T03:38:44;20.20;99.90
63289;DHT22;49412;48.162;-1.978;2022-08-19T03:41:11;20.20;99.90
63289;DHT22;49412;48.162;-1.978;2022-08-19T03:43:38;20.10;99.90
63289;DHT22;49412;48.162;-1.978;2022-08-19T03:46:05;20.10;99.90
63289;DHT22;49412;48.162;-1.978;2022-08-19T03:48:32;20.20;99.90
63289;DHT22;49412;48.162;-1.978;2022-08-19T03:50:58;20.30;99.90
63289;DHT22;49412;48.162;-1.978;2022-08-19T03:53:24;20.40;99.90
63289;DHT22;49412;48.162;-1.978;2022-08-19T03:55:51;20.40;99.90
63289;DHT22;49412;48.162;-1.978;2022-08-19T03:58:17;20.20;99.90
63289;DHT22;49412;48.162;-1.978;2022-08-19T04:00:42;20.20;99.90
63289;DHT22;49412;48.162;-1.978;2022-08-19T04:03:08;20.00;99.90
63289;DHT22;49412;48.162;-1.978;2022-08-19T04:05:34;19.90;99.90
63289;DHT22;49412;48.162;-1.978;2022-08-19T04:07:59;19.90;99.90
63289;DHT22;49412;48.162;-1.978;2022-08-19T04:10:26;19.80;99.90
63289;DHT22;49412;48.162;-1.978;2022-08-19T04:12:52;19.80;99.90
63289;DHT22;49412;48.162;-1.978;2022-08-19T04:15:18;19.90;99.90
63289;DHT22;49412;48.162;-1.978;2022-08-19T04:17:44;20.00;99.90
63289;DHT22;49412;48.162;-1.978;2022-08-19T04:20:09;20.10;99.90
63289;DHT22;49412;48.162;-1.978;2022-08-19T04:22:35;20.00;99.90
63289;DHT22;49412;48.162;-1.978;2022-08-19T04:25:01;20.00;99.90
63289;DHT22;49412;48.162;-1.978;2022-08-19T04:27:26;20.10;99.90
63289;DHT22;49412;48.162;-1.978;2022-08-19T04:29:52;20.20;99.90
63289;DHT22;49412;48.162;-1.978;2022-08-19T04:32:20;20.10;99.90
63289;DHT22;49412;48.162;-1.978;2022-08-19T04:34:46;20.00;99.90
63289;DHT22;49412;48.162;-1.978;2022-08-19T04:37:11;20.00;99.90
63289;DHT22;49412;48.162;-1.978;2022-08-19T04:39:38;20.10;99.90
63289;DHT22;49412;48.162;-1.978;2022-08-19T04:42:22;20.00;99.90
63289;DHT22;49412;48.162;-1.978;2022-08-19T04:45:07;20.20;99.90
63289;DHT22;49412;48.162;-1.978;2022-08-19T04:47:36;20.10;99.90
63289;DHT22;49412;48.162;-1.978;2022-08-19T04:50:02;20.10;99.90
63289;DHT22;49412;48.162;-1.978;2022-08-19T04:52:28;20.10;99.90
63289;DHT22;49412;48.162;-1.978;2022-08-19T04:54:53;20.20;99.90
63289;DHT22;49412;48.162;-1.978;2022-08-19T04:57:20;20.10;99.90
63289;DHT22;49412;48.162;-1.978;2022-08-19T04:59:46;20.00;99.90
63289;DHT22;49412;48.162;-1.978;2022-08-19T05:02:12;20.00;99.90
63289;DHT22;49412;48.162;-1.978;2022-08-19T05:04:37;20.00;99.90
63289;DHT22;49412;48.162;-1.978;2022-08-19T05:07:04;20.10;99.90
63289;DHT22;49412;48.162;-1.978;2022-08-19T05:09:30;20.20;99.90
63289;DHT22;49412;48.162;-1.978;2022-08-19T05:11:56;20.20;99.90
63289;DHT22;49412;48.162;-1.978;2022-08-19T05:14:21;20.40;99.90
63289;DHT22;49412;48.162;-1.978;2022-08-19T05:16:47;20.30;99.90
63289;DHT22;49412;48.162;-1.978;2022-08-19T05:19:13;20.30;99.90
63289;DHT22;49412;48.162;-1.978;2022-08-19T05:21:57;20.30;99.90
63289;DHT22;49412;48.162;-1.978;2022-08-19T05:24:42;20.30;99.90
63289;DHT22;49412;48.162;-1.978;2022-08-19T05:27:08;20.00;99.90
63289;DHT22;49412;48.162;-1.978;2022-08-19T05:29:33;20.00;99.90
63289;DHT22;49412;48.162;-1.978;2022-08-19T05:32:00;20.00;99.90
63289;DHT22;49412;48.162;-1.978;2022-08-19T05:34:26;20.10;99.90
63289;DHT22;49412;48.162;-1.978;2022-08-19T05:36:53;20.20;99.90
63289;DHT22;49412;48.162;-1.978;2022-08-19T05:39:21;20.20;99.90
63289;DHT22;49412;48.162;-1.978;2022-08-19T05:41:48;20.30;99.90
63289;DHT22;49412;48.162;-1.978;2022-08-19T05:44:14;20.10;99.90
63289;DHT22;49412;48.162;-1.978;2022-08-19T05:46:43;20.00;99.90
63289;DHT22;49412;48.162;-1.978;2022-08-19T05:49:08;20.00;99.90
63289;DHT22;49412;48.162;-1.978;2022-08-19T05:51:35;19.90;99.90
63289;DHT22;49412;48.162;-1.978;2022-08-19T05:54:02;19.90;99.90
63289;DHT22;49412;48.162;-1.978;2022-08-19T05:56:29;19.90;99.90
63289;DHT22;49412;48.162;-1.978;2022-08-19T05:58:56;19.90;99.90
63289;DHT22;49412;48.162;-1.978;2022-08-19T06:01:21;20.00;99.90
63289;DHT22;49412;48.162;-1.978;2022-08-19T06:03:47;20.10;99.90
63289;DHT22;49412;48.162;-1.978;2022-08-19T06:06:13;20.10;99.90
63289;DHT22;49412;48.162;-1.978;2022-08-19T06:08:40;20.10;99.90
63289;DHT22;49412;48.162;-1.978;2022-08-19T06:13:45;20.30;99.90
63289;DHT22;49412;48.162;-1.978;2022-08-19T06:16:13;20.40;99.90
63289;DHT22;49412;48.162;-1.978;2022-08-19T06:18:44;20.40;99.90
63289;DHT22;49412;48.162;-1.978;2022-08-19T06:21:10;20.30;99.90
63289;DHT22;49412;48.162;-1.978;2022-08-19T06:23:35;20.20;99.90
63289;DHT22;49412;48.162;-1.978;2022-08-19T06:26:01;20.30;99.90
63289;DHT22;49412;48.162;-1.978;2022-08-19T06:28:27;20.40;99.90
63289;DHT22;49412;48.162;-1.978;2022-08-19T06:30:52;20.60;99.90
63289;DHT22;49412;48.162;-1.978;2022-08-19T06:33:18;20.80;99.90
63289;DHT22;49412;48.162;-1.978;2022-08-19T06:35:43;20.80;99.90
63289;DHT22;49412;48.162;-1.978;2022-08-19T06:38:09;20.90;99.90
63289;DHT22;49412;48.162;-1.978;2022-08-19T06:40:35;20.80;99.90
63289;DHT22;49412;48.162;-1.978;2022-08-19T06:43:03;20.70;99.90
63289;DHT22;49412;48.162;-1.978;2022-08-19T06:45:28;20.80;99.90
63289;DHT22;49412;48.162;-1.978;2022-08-19T06:47:54;20.70;99.90
63289;DHT22;49412;48.162;-1.978;2022-08-19T06:50:23;20.60;99.90
63289;DHT22;49412;48.162;-1.978;2022-08-19T06:52:49;20.80;99.90
63289;DHT22;49412;48.162;-1.978;2022-08-19T06:55:15;20.90;99.90
63289;DHT22;49412;48.162;-1.978;2022-08-19T06:57:41;21.20;99.90
63289;DHT22;49412;48.162;-1.978;2022-08-19T07:00:08;21.20;99.90
63289;DHT22;49412;48.162;-1.978;2022-08-19T07:02:40;21.20;99.90
63289;DHT22;49412;48.162;-1.978;2022-08-19T07:05:06;21.30;99.90
63289;DHT22;49412;48.162;-1.978;2022-08-19T07:07:31;21.30;99.90
63289;DHT22;49412;48.162;-1.978;2022-08-19T07:09:57;21.20;99.90
63289;DHT22;49412;48.162;-1.978;2022-08-19T07:12:23;21.30;99.90
63289;DHT22;49412;48.162;-1.978;2022-08-19T07:14:49;21.40;99.90
63289;DHT22;49412;48.162;-1.978;2022-08-19T07:17:14;21.50;99.90
63289;DHT22;49412;48.162;-1.978;2022-08-19T07:19:40;21.60;99.90
63289;DHT22;49412;48.162;-1.978;2022-08-19T07:22:06;21.60;99.90
63289;DHT22;49412;48.162;-1.978;2022-08-19T07:24:32;21.60;99.90
63289;DHT22;49412;48.162;-1.978;2022-08-19T07:26:59;21.80;99.90
63289;DHT22;49412;48.162;-1.978;2022-08-19T07:29:29;21.90;99.90
63289;DHT22;49412;48.162;-1.978;2022-08-19T07:31:56;22.00;99.90
63289;DHT22;49412;48.162;-1.978;2022-08-19T07:34:24;22.20;99.90
63289;DHT22;49412;48.162;-1.978;2022-08-19T07:36:49;22.20;99.90
63289;DHT22;49412;48.162;-1.978;2022-08-19T07:39:19;22.20;99.90
63289;DHT22;49412;48.162;-1.978;2022-08-19T07:41:45;22.20;99.90
63289;DHT22;49412;48.162;-1.978;2022-08-19T07:44:11;22.00;99.90
63289;DHT22;49412;48.162;-1.978;2022-08-19T07:46:39;21.90;99.90
63289;DHT22;49412;48.162;-1.978;2022-08-19T07:49:06;21.90;99.90
63289;DHT22;49412;48.162;-1.978;2022-08-19T07:51:40;22.10;99.90
63289;DHT22;49412;48.162;-1.978;2022-08-19T07:54:05;22.10;99.90
63289;DHT22;49412;48.162;-1.978;2022-08-19T07:56:31;22.00;99.90
63289;DHT22;49412;48.162;-1.978;2022-08-19T07:58:56;22.00;99.90
63289;DHT22;49412;48.162;-1.978;2022-08-19T08:01:23;22.10;99.90
63289;DHT22;49412;48.162;-1.978;2022-08-19T08:03:49;22.20;99.90
63289;DHT22;49412;48.162;-1.978;2022-08-19T08:06:34;23.20;99.90
63289;DHT22;49412;48.162;-1.978;2022-08-19T08:09:21;24.30;99.90
63289;DHT22;49412;48.162;-1.978;2022-08-19T08:11:51;25.10;99.90
63289;DHT22;49412;48.162;-1.978;2022-08-19T08:14:22;25.80;99.90
63289;DHT22;49412;48.162;-1.978;2022-08-19T08:16:49;27.20;99.90
63289;DHT22;49412;48.162;-1.978;2022-08-19T08:19:15;28.70;99.90
63289;DHT22;49412;48.162;-1.978;2022-08-19T08:21:41;27.70;99.90
63289;DHT22;49412;48.162;-1.978;2022-08-19T08:24:07;27.80;99.90
63289;DHT22;49412;48.162;-1.978;2022-08-19T08:26:33;28.70;99.90
63289;DHT22;49412;48.162;-1.978;2022-08-19T08:28:59;28.80;99.90
63289;DHT22;49412;48.162;-1.978;2022-08-19T08:31:25;27.50;99.90
63289;DHT22;49412;48.162;-1.978;2022-08-19T08:33:50;26.70;99.90
63289;DHT22;49412;48.162;-1.978;2022-08-19T08:36:16;25.50;99.90
63289;DHT22;49412;48.162;-1.978;2022-08-19T08:38:42;25.20;99.90
63289;DHT22;49412;48.162;-1.978;2022-08-19T08:43:45;24.60;99.90
63289;DHT22;49412;48.162;-1.978;2022-08-19T08:46:12;24.40;99.90
63289;DHT22;49412;48.162;-1.978;2022-08-19T08:48:50;24.30;99.90
63289;DHT22;49412;48.162;-1.978;2022-08-19T08:51:29;24.20;99.90
63289;DHT22;49412;48.162;-1.978;2022-08-19T08:54:00;24.00;99.90
63289;DHT22;49412;48.162;-1.978;2022-08-19T08:56:26;23.70;99.90
63289;DHT22;49412;48.162;-1.978;2022-08-19T09:01:22;24.00;99.90
63289;DHT22;49412;48.162;-1.978;2022-08-19T09:03:48;25.50;99.90
63289;DHT22;49412;48.162;-1.978;2022-08-19T09:09:33;27.40;99.90
63289;DHT22;49412;48.162;-1.978;2022-08-19T09:11:41;26.40;99.90
63289;DHT22;49412;48.162;-1.978;2022-08-19T09:14:16;25.50;99.90
63289;DHT22;49412;48.162;-1.978;2022-08-19T09:16:44;25.80;99.90
63289;DHT22;49412;48.162;-1.978;2022-08-19T09:19:09;25.50;99.90
63289;DHT22;49412;48.162;-1.978;2022-08-19T09:21:36;24.70;99.90
63289;DHT22;49412;48.162;-1.978;2022-08-19T09:24:02;24.80;99.90
63289;DHT22;49412;48.162;-1.978;2022-08-19T09:26:28;25.20;99.90
63289;DHT22;49412;48.162;-1.978;2022-08-19T09:28:53;25.70;99.90
63289;DHT22;49412;48.162;-1.978;2022-08-19T09:31:21;25.40;99.90
63289;DHT22;49412;48.162;-1.978;2022-08-19T09:33:47;24.70;99.90
63289;DHT22;49412;48.162;-1.978;2022-08-19T09:36:14;24.20;99.90
63289;DHT22;49412;48.162;-1.978;2022-08-19T09:38:40;23.80;99.90
63289;DHT22;49412;48.162;-1.978;2022-08-19T09:41:07;23.50;99.90
63289;DHT22;49412;48.162;-1.978;2022-08-19T09:43:33;23.60;99.90
63289;DHT22;49412;48.162;-1.978;2022-08-19T09:46:02;23.90;99.90
63289;DHT22;49412;48.162;-1.978;2022-08-19T09:48:31;24.00;99.90
63289;DHT22;49412;48.162;-1.978;2022-08-19T09:51:07;24.70;99.90
63289;DHT22;49412;48.162;-1.978;2022-08-19T09:53:34;24.70;99.90
63289;DHT22;49412;48.162;-1.978;2022-08-19T09:56:00;24.70;99.90
63289;DHT22;49412;48.162;-1.978;2022-08-19T09:58:25;24.50;99.90
63289;DHT22;49412;48.162;-1.978;2022-08-19T10:00:54;24.60;99.90
63289;DHT22;49412;48.162;-1.978;2022-08-19T10:03:19;24.70;99.90
63289;DHT22;49412;48.162;-1.978;2022-08-19T10:05:45;24.70;99.90
63289;DHT22;49412;48.162;-1.978;2022-08-19T10:08:14;24.70;99.90
63289;DHT22;49412;48.162;-1.978;2022-08-19T10:10:41;24.70;99.90
63289;DHT22;49412;48.162;-1.978;2022-08-19T10:13:09;24.40;99.90
63289;DHT22;49412;48.162;-1.978;2022-08-19T10:15:34;24.20;99.90
63289;DHT22;49412;48.162;-1.978;2022-08-19T10:18:00;24.20;99.90
63289;DHT22;49412;48.162;-1.978;2022-08-19T10:20:26;23.90;99.90
63289;DHT22;49412;48.162;-1.978;2022-08-19T10:22:51;23.90;99.90
63289;DHT22;49412;48.162;-1.978;2022-08-19T10:25:17;23.80;99.90
63289;DHT22;49412;48.162;-1.978;2022-08-19T10:27:43;23.80;99.90
63289;DHT22;49412;48.162;-1.978;2022-08-19T10:30:09;23.90;99.90
63289;DHT22;49412;48.162;-1.978;2022-08-19T10:32:35;23.90;99.90
63289;DHT22;49412;48.162;-1.978;2022-08-19T10:35:01;24.00;99.90
63289;DHT22;49412;48.162;-1.978;2022-08-19T10:37:27;24.30;99.90
63289;DHT22;49412;48.162;-1.978;2022-08-19T10:39:53;24.30;99.90
63289;DHT22;49412;48.162;-1.978;2022-08-19T10:42:19;24.20;99.90
63289;DHT22;49412;48.162;-1.978;2022-08-19T10:44:45;24.00;99.90
63289;DHT22;49412;48.162;-1.978;2022-08-19T10:47:14;24.10;99.90
63289;DHT22;49412;48.162;-1.978;2022-08-19T10:49:40;24.10;99.90
63289;DHT22;49412;48.162;-1.978;2022-08-19T10:52:25;24.50;99.90
63289;DHT22;49412;48.162;-1.978;2022-08-19T10:55:01;24.60;99.90
63289;DHT22;49412;48.162;-1.978;2022-08-19T10:57:45;24.70;99.90
63289;DHT22;49412;48.162;-1.978;2022-08-19T11:00:11;25.00;99.90
63289;DHT22;49412;48.162;-1.978;2022-08-19T11:02:37;25.20;99.90
63289;DHT22;49412;48.162;-1.978;2022-08-19T11:05:03;25.40;99.90
63289;DHT22;49412;48.162;-1.978;2022-08-19T11:07:29;25.20;99.90
63289;DHT22;49412;48.162;-1.978;2022-08-19T11:09:54;25.10;99.90
63289;DHT22;49412;48.162;-1.978;2022-08-19T11:12:20;24.80;99.90
63289;DHT22;49412;48.162;-1.978;2022-08-19T11:14:46;24.80;99.90
63289;DHT22;49412;48.162;-1.978;2022-08-19T11:17:15;24.90;99.90
63289;DHT22;49412;48.162;-1.978;2022-08-19T11:19:40;25.30;99.90
63289;DHT22;49412;48.162;-1.978;2022-08-19T11:22:08;25.80;99.90
63289;DHT22;49412;48.162;-1.978;2022-08-19T11:24:35;25.90;99.90
63289;DHT22;49412;48.162;-1.978;2022-08-19T11:27:02;26.00;99.90
63289;DHT22;49412;48.162;-1.978;2022-08-19T11:29:29;26.20;99.90
63289;DHT22;49412;48.162;-1.978;2022-08-19T11:31:55;26.90;99.90
63289;DHT22;49412;48.162;-1.978;2022-08-19T11:34:23;26.80;99.90
63289;DHT22;49412;48.162;-1.978;2022-08-19T11:36:49;26.40;99.90
63289;DHT22;49412;48.162;-1.978;2022-08-19T11:39:16;26.20;99.90
63289;DHT22;49412;48.162;-1.978;2022-08-19T11:41:41;26.30;99.90
63289;DHT22;49412;48.162;-1.978;2022-08-19T11:44:07;25.80;99.90
63289;DHT22;49412;48.162;-1.978;2022-08-19T11:46:33;25.70;99.90
63289;DHT22;49412;48.162;-1.978;2022-08-19T11:48:59;26.00;99.90
63289;DHT22;49412;48.162;-1.978;2022-08-19T11:51:26;26.20;99.90
63289;DHT22;49412;48.162;-1.978;2022-08-19T11:53:53;26.50;99.90
63289;DHT22;49412;48.162;-1.978;2022-08-19T11:56:19;26.50;99.90
63289;DHT22;49412;48.162;-1.978;2022-08-19T11:58:45;26.50;99.90
63289;DHT22;49412;48.162;-1.978;2022-08-19T12:01:11;26.90;99.90
63289;DHT22;49412;48.162;-1.978;2022-08-19T12:03:37;26.80;99.90
63289;DHT22;49412;48.162;-1.978;2022-08-19T12:06:04;26.60;99.90
63289;DHT22;49412;48.162;-1.978;2022-08-19T12:08:30;26.30;99.90
63289;DHT22;49412;48.162;-1.978;2022-08-19T12:10:56;26.50;99.90
63289;DHT22;49412;48.162;-1.978;2022-08-19T12:13:21;26.30;99.90
63289;DHT22;49412;48.162;-1.978;2022-08-19T12:15:47;26.10;99.90
63289;DHT22;49412;48.162;-1.978;2022-08-19T12:18:13;25.80;99.90
63289;DHT22;49412;48.162;-1.978;2022-08-19T12:20:40;25.70;99.90
63289;DHT22;49412;48.162;-1.978;2022-08-19T12:23:06;25.60;99.90
63289;DHT22;49412;48.162;-1.978;2022-08-19T12:25:32;25.80;99.90
63289;DHT22;49412;48.162;-1.978;2022-08-19T12:27:58;26.20;99.90
63289;DHT22;49412;48.162;-1.978;2022-08-19T12:30:24;26.00;99.90
63289;DHT22;49412;48.162;-1.978;2022-08-19T12:32:49;25.80;99.90
63289;DHT22;49412;48.162;-1.978;2022-08-19T12:35:17;25.60;99.90
63289;DHT22;49412;48.162;-1.978;2022-08-19T12:37:42;25.50;99.90
63289;DHT22;49412;48.162;-1.978;2022-08-19T12:40:10;25.50;99.90
63289;DHT22;49412;48.162;-1.978;2022-08-19T12:42:37;25.20;99.90
63289;DHT22;49412;48.162;-1.978;2022-08-19T12:45:06;25.20;99.90
63289;DHT22;49412;48.162;-1.978;2022-08-19T12:47:32;25.20;99.90
63289;DHT22;49412;48.162;-1.978;2022-08-19T12:49:57;25.00;99.90
63289;DHT22;49412;48.162;-1.978;2022-08-19T12:52:23;24.70;99.90
63289;DHT22;49412;48.162;-1.978;2022-08-19T12:54:50;24.70;99.90
63289;DHT22;49412;48.162;-1.978;2022-08-19T12:57:16;24.80;99.90
63289;DHT22;49412;48.162;-1.978;2022-08-19T12:59:42;24.80;99.90
63289;DHT22;49412;48.162;-1.978;2022-08-19T13:02:08;25.00;99.90
63289;DHT22;49412;48.162;-1.978;2022-08-19T13:04:34;25.10;99.90
63289;DHT22;49412;48.162;-1.978;2022-08-19T13:07:02;24.90;99.90
63289;DHT22;49412;48.162;-1.978;2022-08-19T13:09:27;25.10;99.90
63289;DHT22;49412;48.162;-1.978;2022-08-19T13:11:53;25.20;99.90
63289;DHT22;49412;48.162;-1.978;2022-08-19T13:14:19;25.10;99.90
63289;DHT22;49412;48.162;-1.978;2022-08-19T13:16:44;25.00;99.90
63289;DHT22;49412;48.162;-1.978;2022-08-19T13:19:10;24.60;99.90
63289;DHT22;49412;48.162;-1.978;2022-08-19T13:21:37;24.30;99.90
63289;DHT22;49412;48.162;-1.978;2022-08-19T13:24:02;24.00;99.90
63289;DHT22;49412;48.162;-1.978;2022-08-19T13:26:28;23.50;99.90
63289;DHT22;49412;48.162;-1.978;2022-08-19T13:28:54;23.20;99.90
63289;DHT22;49412;48.162;-1.978;2022-08-19T13:31:39;23.00;99.90
63289;DHT22;49412;48.162;-1.978;2022-08-19T13:34:28;22.90;99.90
63289;DHT22;49412;48.162;-1.978;2022-08-19T13:36:54;22.90;99.90
63289;DHT22;49412;48.162;-1.978;2022-08-19T13:39:19;23.10;99.90
63289;DHT22;49412;48.162;-1.978;2022-08-19T13:41:46;23.00;99.90
63289;DHT22;49412;48.162;-1.978;2022-08-19T13:44:15;22.90;99.90
63289;DHT22;49412;48.162;-1.978;2022-08-19T13:46:43;22.80;99.90
63289;DHT22;49412;48.162;-1.978;2022-08-19T13:49:10;22.80;99.90
63289;DHT22;49412;48.162;-1.978;2022-08-19T13:51:36;22.90;99.90
63289;DHT22;49412;48.162;-1.978;2022-08-19T13:54:02;23.10;99.90
63289;DHT22;49412;48.162;-1.978;2022-08-19T13:56:28;23.20;99.90
63289;DHT22;49412;48.162;-1.978;2022-08-19T13:58:53;23.20;99.90
63289;DHT22;49412;48.162;-1.978;2022-08-19T14:01:20;23.00;99.90
63289;DHT22;49412;48.162;-1.978;2022-08-19T14:03:46;23.10;99.90
63289;DHT22;49412;48.162;-1.978;2022-08-19T14:06:11;23.00;99.90
63289;DHT22;49412;48.162;-1.978;2022-08-19T14:08:37;23.00;99.90
63289;DHT22;49412;48.162;-1.978;2022-08-19T14:11:04;23.10;99.90
63289;DHT22;49412;48.162;-1.978;2022-08-19T14:13:30;22.90;99.90
63289;DHT22;49412;48.162;-1.978;2022-08-19T14:15:57;22.90;99.90
63289;DHT22;49412;48.162;-1.978;2022-08-19T14:18:23;22.90;99.90
63289;DHT22;49412;48.162;-1.978;2022-08-19T14:20:50;22.90;99.90
63289;DHT22;49412;48.162;-1.978;2022-08-19T14:23:16;22.90;99.90
63289;DHT22;49412;48.162;-1.978;2022-08-19T14:25:41;22.90;99.90
63289;DHT22;49412;48.162;-1.978;2022-08-19T14:28:07;23.20;99.90
63289;DHT22;49412;48.162;-1.978;2022-08-19T14:30:36;23.20;99.90
63289;DHT22;49412;48.162;-1.978;2022-08-19T14:33:03;23.10;99.90
63289;DHT22;49412;48.162;-1.978;2022-08-19T14:35:31;23.00;99.90
63289;DHT22;49412;48.162;-1.978;2022-08-19T14:38:00;22.80;99.90
63289;DHT22;49412;48.162;-1.978;2022-08-19T14:40:27;22.90;99.90
63289;DHT22;49412;48.162;-1.978;2022-08-19T14:42:58;23.20;99.90
63289;DHT22;49412;48.162;-1.978;2022-08-19T14:45:29;23.50;99.90
63289;DHT22;49412;48.162;-1.978;2022-08-19T14:47:55;23.70;99.90
63289;DHT22;49412;48.162;-1.978;2022-08-19T14:50:21;23.80;99.90
63289;DHT22;49412;48.162;-1.978;2022-08-19T14:52:46;23.70;99.90
63289;DHT22;49412;48.162;-1.978;2022-08-19T14:55:16;23.30;99.90
63289;DHT22;49412;48.162;-1.978;2022-08-19T14:57:43;23.10;99.90
63289;DHT22;49412;48.162;-1.978;2022-08-19T15:00:09;23.20;99.90
63289;DHT22;49412;48.162;-1.978;2022-08-19T15:02:38;23.30;99.90
63289;DHT22;49412;48.162;-1.978;2022-08-19T15:05:04;22.90;99.90
63289;DHT22;49412;48.162;-1.978;2022-08-19T15:07:30;22.80;99.90
63289;DHT22;49412;48.162;-1.978;2022-08-19T15:09:56;22.70;99.90
63289;DHT22;49412;48.162;-1.978;2022-08-19T15:12:22;22.60;99.90
63289;DHT22;49412;48.162;-1.978;2022-08-19T15:14:48;22.80;99.90
63289;DHT22;49412;48.162;-1.978;2022-08-19T15:17:15;22.90;99.90
63289;DHT22;49412;48.162;-1.978;2022-08-19T15:19:41;22.70;99.90
63289;DHT22;49412;48.162;-1.978;2022-08-19T15:22:07;22.60;99.90
63289;DHT22;49412;48.162;-1.978;2022-08-19T15:24:32;22.50;99.90